sensor_id;sensor_type;location;lat;lon;timestamp;pressure;altitude;pressure_sealevel;temperature;humidity
19596;BME280;9945;46.010;8.946;2023-04-28T00:00:06;97531.66;;;17.05;51.74
19596;BME280;9945;46.010;8.946;2023-04-28T00:02:33;97533.03;;;17.00;51.63
19596;BME280;9945;46.010;8.946;2023-04-28T00:05:00;97530.38;;;17.00;51.84
19596;BME280;9945;46.010;8.946;2023-04-28T00:07:26;97525.53;;;17.04;50.96
19596;BME280;9945;46.010;8.946;2023-04-28T00:09:55;97521.97;;;16.97;50.88
19596;BME280;9945;46.010;8.946;2023-04-28T00:12:23;97517.50;;;16.97;51.63
19596;BME280;9945;46.010;8.946;2023-04-28T00:14:50;97517.25;;;16.92;51.71
19596;BME280;9945;46.010;8.946;2023-04-28T00:17:16;97518.69;;;16.95;51.36
19596;BME280;9945;46.010;8.946;2023-04-28T00:19:43;97512.69;;;17.01;50.90
19596;BME280;9945;46.010;8.946;2023-04-28T00:22:10;97517.59;;;16.89;52.47
19596;BME280;9945;46.010;8.946;2023-04-28T00:24:37;97517.38;;;16.76;53.70
19596;BME280;9945;46.010;8.946;2023-04-28T00:27:07;97530.13;;;16.73;52.66
19596;BME280;9945;46.010;8.946;2023-04-28T00:29:35;97528.31;;;16.73;53.60
19596;BME280;9945;46.010;8.946;2023-04-28T00:32:02;97526.31;;;16.75;53.90
19596;BME280;9945;46.010;8.946;2023-04-28T00:34:31;97531.31;;;16.70;54.56
19596;BME280;9945;46.010;8.946;2023-04-28T00:36:58;97527.09;;;16.61;56.29
19596;BME280;9945;46.010;8.946;2023-04-28T00:39:25;97527.59;;;16.79;54.46
19596;BME280;9945;46.010;8.946;2023-04-28T00:41:52;97517.63;;;16.67;54.32
19596;BME280;9945;46.010;8.946;2023-04-28T00:44:20;97529.88;;;16.59;55.43
19596;BME280;9945;46.010;8.946;2023-04-28T00:46:47;97534.34;;;16.59;56.10
19596;BME280;9945;46.010;8.946;2023-04-28T00:49:14;97527.28;;;16.51;55.82
19596;BME280;9945;46.010;8.946;2023-04-28T00:51:41;97524.66;;;16.51;56.63
19596;BME280;9945;46.010;8.946;2023-04-28T00:54:08;97522.22;;;16.50;56.64
19596;BME280;9945;46.010;8.946;2023-04-28T00:56:38;97520.13;;;16.60;55.83
19596;BME280;9945;46.010;8.946;2023-04-28T00:59:05;97529.41;;;16.56;55.55
19596;BME280;9945;46.010;8.946;2023-04-28T01:01:34;97524.03;;;16.49;56.41
19596;BME280;9945;46.010;8.946;2023-04-28T01:04:01;97516.38;;;16.54;55.81
19596;BME280;9945;46.010;8.946;2023-04-28T01:06:28;97507.97;;;16.51;56.81
19596;BME280;9945;46.010;8.946;2023-04-28T01:08:56;97508.03;;;16.43;55.70
19596;BME280;9945;46.010;8.946;2023-04-28T01:11:22;97511.16;;;16.46;56.29
19596;BME280;9945;46.010;8.946;2023-04-28T01:13:49;97512.31;;;16.44;56.97
19596;BME280;9945;46.010;8.946;2023-04-28T01:16:17;97512.25;;;16.52;57.00
19596;BME280;9945;46.010;8.946;2023-04-28T01:18:46;97516.09;;;16.49;57.16
19596;BME280;9945;46.010;8.946;2023-04-28T01:21:13;97519.16;;;16.38;57.28
19596;BME280;9945;46.010;8.946;2023-04-28T01:23:40;97513.03;;;16.38;57.14
19596;BME280;9945;46.010;8.946;2023-04-28T01:26:08;97512.09;;;16.31;58.22
19596;BME280;9945;46.010;8.946;2023-04-28T01:28:35;97507.22;;;16.42;56.29
19596;BME280;9945;46.010;8.946;2023-04-28T01:31:01;97509.56;;;16.37;56.38
19596;BME280;9945;46.010;8.946;2023-04-28T01:33:28;97515.41;;;16.33;56.57
19596;BME280;9945;46.010;8.946;2023-04-28T01:35:56;97521.53;;;16.25;57.65
19596;BME280;9945;46.010;8.946;2023-04-28T01:38:23;97519.09;;;16.23;57.72
19596;BME280;9945;46.010;8.946;2023-04-28T01:40:50;97523.25;;;16.18;58.85
19596;BME280;9945;46.010;8.946;2023-04-28T01:43:20;97528.03;;;16.22;57.07
19596;BME280;9945;46.010;8.946;2023-04-28T01:45:46;97523.78;;;16.13;58.13
19596;BME280;9945;46.010;8.946;2023-04-28T01:48:13;97520.31;;;16.13;58.15
19596;BME280;9945;46.010;8.946;2023-04-28T01:50:40;97525.44;;;16.14;57.93
19596;BME280;9945;46.010;8.946;2023-04-28T01:53:07;97528.94;;;16.07;57.81
19596;BME280;9945;46.010;8.946;2023-04-28T01:55:34;97525.44;;;16.14;57.20
19596;BME280;9945;46.010;8.946;2023-04-28T01:58:01;97536.00;;;16.14;56.59
19596;BME280;9945;46.010;8.946;2023-04-28T02:00:29;97539.25;;;16.16;56.86
19596;BME280;9945;46.010;8.946;2023-04-28T02:02:56;97539.19;;;16.02;57.12
19596;BME280;9945;46.010;8.946;2023-04-28T02:05:23;97537.72;;;15.99;57.75
19596;BME280;9945;46.010;8.946;2023-04-28T02:07:49;97541.84;;;16.02;57.66
19596;BME280;9945;46.010;8.946;2023-04-28T02:10:16;97542.00;;;16.00;56.69
19596;BME280;9945;46.010;8.946;2023-04-28T02:12:43;97541.38;;;15.98;57.77
19596;BME280;9945;46.010;8.946;2023-04-28T02:15:10;97539.56;;;15.99;58.46
19596;BME280;9945;46.010;8.946;2023-04-28T02:17:38;97535.63;;;15.95;57.16
19596;BME280;9945;46.010;8.946;2023-04-28T02:20:06;97540.50;;;16.06;57.73
19596;BME280;9945;46.010;8.946;2023-04-28T02:22:33;97542.78;;;16.09;56.69
19596;BME280;9945;46.010;8.946;2023-04-28T02:25:00;97538.03;;;16.04;57.23
19596;BME280;9945;46.010;8.946;2023-04-28T02:27:27;97539.72;;;15.97;56.81
19596;BME280;9945;46.010;8.946;2023-04-28T02:29:53;97542.63;;;15.79;57.57
19596;BME280;9945;46.010;8.946;2023-04-28T02:32:20;97539.81;;;15.81;57.87
19596;BME280;9945;46.010;8.946;2023-04-28T02:34:53;97534.16;;;15.84;58.13
19596;BME280;9945;46.010;8.946;2023-04-28T02:37:19;97522.94;;;15.90;58.19
19596;BME280;9945;46.010;8.946;2023-04-28T02:39:46;97521.97;;;15.83;57.13
19596;BME280;9945;46.010;8.946;2023-04-28T02:42:13;97520.03;;;15.77;57.15
19596;BME280;9945;46.010;8.946;2023-04-28T02:44:40;97518.03;;;15.79;58.26
19596;BME280;9945;46.010;8.946;2023-04-28T02:47:07;97514.63;;;15.70;58.27
19596;BME280;9945;46.010;8.946;2023-04-28T02:49:34;97515.44;;;15.71;58.47
19596;BME280;9945;46.010;8.946;2023-04-28T02:52:02;97512.59;;;15.80;58.14
19596;BME280;9945;46.010;8.946;2023-04-28T02:54:29;97513.25;;;15.74;58.01
19596;BME280;9945;46.010;8.946;2023-04-28T02:56:58;97514.09;;;15.75;58.46
19596;BME280;9945;46.010;8.946;2023-04-28T02:59:25;97512.28;;;15.75;59.50
19596;BME280;9945;46.010;8.946;2023-04-28T03:01:52;97512.75;;;15.79;58.12
19596;BME280;9945;46.010;8.946;2023-04-28T03:04:19;97513.41;;;15.81;58.45
19596;BME280;9945;46.010;8.946;2023-04-28T03:06:46;97521.00;;;15.76;58.46
19596;BME280;9945;46.010;8.946;2023-04-28T03:09:14;97523.38;;;15.71;59.43
19596;BME280;9945;46.010;8.946;2023-04-28T03:11:41;97522.88;;;15.67;60.55
19596;BME280;9945;46.010;8.946;2023-04-28T03:14:08;97536.41;;;15.72;59.79
19596;BME280;9945;46.010;8.946;2023-04-28T03:16:35;97530.75;;;15.75;59.93
19596;BME280;9945;46.010;8.946;2023-04-28T03:19:02;97533.22;;;15.77;60.17
19596;BME280;9945;46.010;8.946;2023-04-28T03:21:29;97538.63;;;15.83;58.85
19596;BME280;9945;46.010;8.946;2023-04-28T03:23:56;97545.41;;;15.86;60.01
19596;BME280;9945;46.010;8.946;2023-04-28T03:26:24;97528.34;;;15.97;58.41
19596;BME280;9945;46.010;8.946;2023-04-28T03:28:51;97523.19;;;16.03;59.09
19596;BME280;9945;46.010;8.946;2023-04-28T03:31:18;97525.25;;;15.85;59.36
19596;BME280;9945;46.010;8.946;2023-04-28T03:33:45;97518.53;;;15.74;60.78
19596;BME280;9945;46.010;8.946;2023-04-28T03:36:12;97521.66;;;15.78;61.25
19596;BME280;9945;46.010;8.946;2023-04-28T03:38:39;97517.38;;;15.77;60.41
19596;BME280;9945;46.010;8.946;2023-04-28T03:41:06;97523.50;;;15.77;61.97
19596;BME280;9945;46.010;8.946;2023-04-28T03:43:34;97521.19;;;15.74;61.19
19596;BME280;9945;46.010;8.946;2023-04-28T03:46:02;97514.41;;;15.80;60.89
19596;BME280;9945;46.010;8.946;2023-04-28T03:48:29;97510.56;;;15.82;59.92
19596;BME280;9945;46.010;8.946;2023-04-28T03:50:56;97504.84;;;15.79;61.79
19596;BME280;9945;46.010;8.946;2023-04-28T03:53:22;97506.00;;;15.76;61.74
19596;BME280;9945;46.010;8.946;2023-04-28T03:55:49;97507.16;;;15.82;60.96
19596;BME280;9945;46.010;8.946;2023-04-28T03:58:16;97506.81;;;15.77;62.25
19596;BME280;9945;46.010;8.946;2023-04-28T04:00:45;97512.44;;;15.74;61.64
19596;BME280;9945;46.010;8.946;2023-04-28T04:03:12;97507.84;;;15.68;62.85
19596;BME280;9945;46.010;8.946;2023-04-28T04:05:39;97509.16;;;15.72;63.17
19596;BME280;9945;46.010;8.946;2023-04-28T04:08:06;97507.94;;;15.82;62.51
19596;BME280;9945;46.010;8.946;2023-04-28T04:10:33;97514.19;;;15.89;64.00
19596;BME280;9945;46.010;8.946;2023-04-28T04:13:00;97508.09;;;15.89;65.40
19596;BME280;9945;46.010;8.946;2023-04-28T04:15:27;97505.13;;;15.84;65.74
19596;BME280;9945;46.010;8.946;2023-04-28T04:17:55;97502.69;;;15.74;68.47
19596;BME280;9945;46.010;8.946;2023-04-28T04:20:22;97502.28;;;15.63;70.24
19596;BME280;9945;46.010;8.946;2023-04-28T04:22:49;97488.97;;;15.56;70.88
19596;BME280;9945;46.010;8.946;2023-04-28T04:25:16;97490.41;;;15.50;71.78
19596;BME280;9945;46.010;8.946;2023-04-28T04:27:42;97496.06;;;15.47;73.48
19596;BME280;9945;46.010;8.946;2023-04-28T04:30:10;97489.25;;;15.53;74.00
19596;BME280;9945;46.010;8.946;2023-04-28T04:32:37;97490.94;;;15.54;74.91
19596;BME280;9945;46.010;8.946;2023-04-28T04:35:06;97492.59;;;15.55;75.07
19596;BME280;9945;46.010;8.946;2023-04-28T04:37:33;97495.53;;;15.52;74.96
19596;BME280;9945;46.010;8.946;2023-04-28T04:39:59;97500.69;;;15.54;75.66
19596;BME280;9945;46.010;8.946;2023-04-28T04:42:27;97502.16;;;15.56;74.90
19596;BME280;9945;46.010;8.946;2023-04-28T04:44:54;97506.09;;;15.60;74.87
19596;BME280;9945;46.010;8.946;2023-04-28T04:47:21;97507.56;;;15.63;74.70
19596;BME280;9945;46.010;8.946;2023-04-28T04:49:48;97508.03;;;15.66;75.07
19596;BME280;9945;46.010;8.946;2023-04-28T04:52:16;97515.66;;;15.61;74.67
19596;BME280;9945;46.010;8.946;2023-04-28T04:54:44;97514.66;;;15.62;74.33
19596;BME280;9945;46.010;8.946;2023-04-28T04:57:11;97519.41;;;15.67;74.46
19596;BME280;9945;46.010;8.946;2023-04-28T04:59:38;97530.13;;;15.65;74.81
19596;BME280;9945;46.010;8.946;2023-04-28T05:02:05;97529.47;;;15.71;73.75
19596;BME280;9945;46.010;8.946;2023-04-28T05:04:32;97539.03;;;15.72;74.19
19596;BME280;9945;46.010;8.946;2023-04-28T05:06:59;97535.69;;;15.78;74.25
19596;BME280;9945;46.010;8.946;2023-04-28T05:09:27;97531.69;;;15.82;73.49
19596;BME280;9945;46.010;8.946;2023-04-28T05:11:55;97535.16;;;15.83;73.13
19596;BME280;9945;46.010;8.946;2023-04-28T05:14:22;97537.81;;;15.83;71.96
19596;BME280;9945;46.010;8.946;2023-04-28T05:16:49;97533.84;;;15.87;73.10
19596;BME280;9945;46.010;8.946;2023-04-28T05:19:16;97542.59;;;15.87;72.26
19596;BME280;9945;46.010;8.946;2023-04-28T05:21:43;97542.59;;;15.87;73.24
19596;BME280;9945;46.010;8.946;2023-04-28T05:24:11;97536.59;;;15.94;72.39
19596;BME280;9945;46.010;8.946;2023-04-28T05:26:40;97538.47;;;15.85;73.60
19596;BME280;9945;46.010;8.946;2023-04-28T05:29:06;97535.69;;;15.78;74.44
19596;BME280;9945;46.010;8.946;2023-04-28T05:31:33;97551.66;;;15.85;73.55
19596;BME280;9945;46.010;8.946;2023-04-28T05:34:00;97542.47;;;15.81;73.36
19596;BME280;9945;46.010;8.946;2023-04-28T05:36:27;97547.91;;;15.79;74.93
19596;BME280;9945;46.010;8.946;2023-04-28T05:38:54;97548.06;;;15.78;74.50
19596;BME280;9945;46.010;8.946;2023-04-28T05:41:21;97542.63;;;15.79;74.67
19596;BME280;9945;46.010;8.946;2023-04-28T05:43:49;97539.28;;;15.85;74.05
19596;BME280;9945;46.010;8.946;2023-04-28T05:46:16;97545.53;;;15.93;73.51
19596;BME280;9945;46.010;8.946;2023-04-28T05:48:44;97552.25;;;16.03;72.40
19596;BME280;9945;46.010;8.946;2023-04-28T05:51:11;97553.94;;;15.96;73.88
19596;BME280;9945;46.010;8.946;2023-04-28T05:53:38;97554.06;;;16.03;71.82
19596;BME280;9945;46.010;8.946;2023-04-28T05:56:05;97555.88;;;16.02;73.71
19596;BME280;9945;46.010;8.946;2023-04-28T05:58:33;97554.06;;;16.03;73.39
19596;BME280;9945;46.010;8.946;2023-04-28T06:01:01;97563.56;;;16.12;74.90
19596;BME280;9945;46.010;8.946;2023-04-28T06:03:27;97565.41;;;16.11;73.86
19596;BME280;9945;46.010;8.946;2023-04-28T06:05:54;97561.75;;;16.12;75.25
19596;BME280;9945;46.010;8.946;2023-04-28T06:08:21;97554.66;;;16.13;74.37
19596;BME280;9945;46.010;8.946;2023-04-28T06:10:48;97554.66;;;16.13;74.73
19596;BME280;9945;46.010;8.946;2023-04-28T06:13:15;97555.31;;;16.15;75.39
19596;BME280;9945;46.010;8.946;2023-04-28T06:15:42;97547.03;;;16.18;74.65
19596;BME280;9945;46.010;8.946;2023-04-28T06:18:10;97546.25;;;16.09;76.19
19596;BME280;9945;46.010;8.946;2023-04-28T06:20:37;97543.94;;;16.14;75.01
19596;BME280;9945;46.010;8.946;2023-04-28T06:23:04;97547.84;;;16.18;75.38
19596;BME280;9945;46.010;8.946;2023-04-28T06:25:31;97550.44;;;16.26;73.33
19596;BME280;9945;46.010;8.946;2023-04-28T06:27:58;97545.84;;;16.20;72.98
19596;BME280;9945;46.010;8.946;2023-04-28T06:30:25;97540.34;;;16.30;73.34
19596;BME280;9945;46.010;8.946;2023-04-28T06:32:52;97546.69;;;16.44;72.22
19596;BME280;9945;46.010;8.946;2023-04-28T06:35:21;97548.81;;;16.48;72.65
19596;BME280;9945;46.010;8.946;2023-04-28T06:37:48;97545.19;;;16.49;72.11
19596;BME280;9945;46.010;8.946;2023-04-28T06:40:15;97554.38;;;16.53;72.11
19596;BME280;9945;46.010;8.946;2023-04-28T06:42:42;97555.84;;;16.56;71.11
19596;BME280;9945;46.010;8.946;2023-04-28T06:45:14;97562.38;;;16.45;72.85
19596;BME280;9945;46.010;8.946;2023-04-28T06:47:43;97559.25;;;16.42;73.52
19596;BME280;9945;46.010;8.946;2023-04-28T06:50:10;97557.09;;;16.45;72.68
19596;BME280;9945;46.010;8.946;2023-04-28T06:52:38;97564.38;;;16.43;73.54
19596;BME280;9945;46.010;8.946;2023-04-28T06:55:06;97579.06;;;16.46;73.01
19596;BME280;9945;46.010;8.946;2023-04-28T06:57:33;97581.97;;;16.51;72.18
19596;BME280;9945;46.010;8.946;2023-04-28T07:00:02;97567.41;;;16.63;72.37
19596;BME280;9945;46.010;8.946;2023-04-28T07:02:29;97572.50;;;16.64;70.57
19596;BME280;9945;46.010;8.946;2023-04-28T07:04:56;97567.06;;;16.66;71.23
19596;BME280;9945;46.010;8.946;2023-04-28T07:07:23;97565.88;;;16.60;70.26
19596;BME280;9945;46.010;8.946;2023-04-28T07:09:52;97560.91;;;16.43;71.20
19596;BME280;9945;46.010;8.946;2023-04-28T07:12:19;97559.91;;;16.44;70.26
19596;BME280;9945;46.010;8.946;2023-04-28T07:14:46;97558.50;;;16.33;69.89
19596;BME280;9945;46.010;8.946;2023-04-28T07:17:15;97547.44;;;16.30;71.75
19596;BME280;9945;46.010;8.946;2023-04-28T07:19:41;97560.84;;;16.28;71.94
19596;BME280;9945;46.010;8.946;2023-04-28T07:22:08;97565.19;;;16.21;70.43
19596;BME280;9945;46.010;8.946;2023-04-28T07:24:35;97566.47;;;16.25;71.07
19596;BME280;9945;46.010;8.946;2023-04-28T07:27:03;97567.78;;;16.29;71.66
19596;BME280;9945;46.010;8.946;2023-04-28T07:29:30;97571.00;;;16.39;71.65
19596;BME280;9945;46.010;8.946;2023-04-28T07:33:02;97572.28;;;16.43;70.41
19596;BME280;9945;46.010;8.946;2023-04-28T07:35:29;97564.41;;;16.66;69.23
19596;BME280;9945;46.010;8.946;2023-04-28T07:37:56;97566.22;;;16.66;68.94
19596;BME280;9945;46.010;8.946;2023-04-28T07:40:23;97575.34;;;16.63;69.64
19596;BME280;9945;46.010;8.946;2023-04-28T07:42:50;97568.53;;;16.60;71.20
19596;BME280;9945;46.010;8.946;2023-04-28T07:45:17;97559.28;;;16.64;68.89
19596;BME280;9945;46.010;8.946;2023-04-28T07:47:44;97562.69;;;16.73;68.11
19596;BME280;9945;46.010;8.946;2023-04-28T07:50:12;97568.97;;;16.72;68.22
19596;BME280;9945;46.010;8.946;2023-04-28T07:52:40;97565.44;;;16.80;68.73
19596;BME280;9945;46.010;8.946;2023-04-28T07:55:07;97570.53;;;16.67;67.43
19596;BME280;9945;46.010;8.946;2023-04-28T07:57:34;97569.88;;;16.64;69.39
19596;BME280;9945;46.010;8.946;2023-04-28T08:00:01;97563.63;;;16.80;67.33
19596;BME280;9945;46.010;8.946;2023-04-28T08:02:29;97569.41;;;16.98;67.64
19596;BME280;9945;46.010;8.946;2023-04-28T08:04:58;97562.50;;;17.12;66.89
19596;BME280;9945;46.010;8.946;2023-04-28T08:07:27;97570.34;;;17.20;66.69
19596;BME280;9945;46.010;8.946;2023-04-28T08:09:54;97570.72;;;17.17;64.97
19596;BME280;9945;46.010;8.946;2023-04-28T08:12:21;97565.44;;;17.32;64.61
19596;BME280;9945;46.010;8.946;2023-04-28T08:14:48;97572.75;;;17.30;64.75
19596;BME280;9945;46.010;8.946;2023-04-28T08:17:16;97574.22;;;17.32;65.02
19596;BME280;9945;46.010;8.946;2023-04-28T08:19:43;97575.41;;;17.59;66.13
19596;BME280;9945;46.010;8.946;2023-04-28T08:22:10;97572.25;;;17.64;64.80
19596;BME280;9945;46.010;8.946;2023-04-28T08:24:39;97577.00;;;17.68;65.74
19596;BME280;9945;46.010;8.946;2023-04-28T08:27:07;97583.53;;;17.58;68.93
19596;BME280;9945;46.010;8.946;2023-04-28T08:29:33;97580.63;;;17.82;71.21
19596;BME280;9945;46.010;8.946;2023-04-28T08:32:00;97574.31;;;17.98;73.00
19596;BME280;9945;46.010;8.946;2023-04-28T08:34:27;97575.94;;;17.99;79.91
19596;BME280;9945;46.010;8.946;2023-04-28T08:36:54;97574.00;;;18.07;78.67
19596;BME280;9945;46.010;8.946;2023-04-28T08:39:21;97570.53;;;18.07;72.95
19596;BME280;9945;46.010;8.946;2023-04-28T08:41:49;97570.88;;;17.68;80.19
19596;BME280;9945;46.010;8.946;2023-04-28T08:44:17;97567.34;;;17.53;84.94
19596;BME280;9945;46.010;8.946;2023-04-28T08:46:45;97567.09;;;17.48;82.63
19596;BME280;9945;46.010;8.946;2023-04-28T08:49:14;97570.22;;;17.51;76.73
19596;BME280;9945;46.010;8.946;2023-04-28T08:51:45;97557.72;;;17.60;74.58
19596;BME280;9945;46.010;8.946;2023-04-28T08:54:14;97564.59;;;17.69;70.48
19596;BME280;9945;46.010;8.946;2023-04-28T08:56:42;97559.63;;;17.66;65.84
19596;BME280;9945;46.010;8.946;2023-04-28T08:59:11;97547.03;;;17.68;65.23
19596;BME280;9945;46.010;8.946;2023-04-28T09:01:38;97542.06;;;17.94;64.80
19596;BME280;9945;46.010;8.946;2023-04-28T09:04:05;97546.94;;;18.12;62.61
19596;BME280;9945;46.010;8.946;2023-04-28T09:06:34;97550.56;;;17.90;65.36
19596;BME280;9945;46.010;8.946;2023-04-28T09:09:21;97558.56;;;18.11;63.71
19596;BME280;9945;46.010;8.946;2023-04-28T09:11:55;97552.44;;;18.10;62.75
19596;BME280;9945;46.010;8.946;2023-04-28T09:14:25;97543.03;;;18.29;62.84
19596;BME280;9945;46.010;8.946;2023-04-28T09:16:52;97541.22;;;18.30;60.63
19596;BME280;9945;46.010;8.946;2023-04-28T09:19:19;97535.91;;;18.30;58.62
19596;BME280;9945;46.010;8.946;2023-04-28T09:21:50;97536.50;;;18.25;59.32
19596;BME280;9945;46.010;8.946;2023-04-28T09:24:28;97536.19;;;18.35;57.03
19596;BME280;9945;46.010;8.946;2023-04-28T09:26:55;97541.34;;;18.22;56.42
19596;BME280;9945;46.010;8.946;2023-04-28T09:29:23;97540.97;;;18.46;57.13
19596;BME280;9945;46.010;8.946;2023-04-28T09:31:50;97543.56;;;18.39;58.60
19596;BME280;9945;46.010;8.946;2023-04-28T09:34:17;97541.19;;;18.66;55.94
19596;BME280;9945;46.010;8.946;2023-04-28T09:36:44;97541.25;;;18.51;55.25
19596;BME280;9945;46.010;8.946;2023-04-28T09:39:11;97530.94;;;18.84;55.24
19596;BME280;9945;46.010;8.946;2023-04-28T09:41:39;97525.91;;;19.23;53.93
19596;BME280;9945;46.010;8.946;2023-04-28T09:44:10;97534.50;;;18.98;51.67
19596;BME280;9945;46.010;8.946;2023-04-28T09:46:39;97524.63;;;19.13;52.45
19596;BME280;9945;46.010;8.946;2023-04-28T09:49:06;97520.59;;;19.23;50.90
19596;BME280;9945;46.010;8.946;2023-04-28T09:51:33;97525.75;;;19.32;51.02
19596;BME280;9945;46.010;8.946;2023-04-28T09:54:01;97515.28;;;19.51;50.85
19596;BME280;9945;46.010;8.946;2023-04-28T09:56:30;97524.38;;;19.70;52.38
19596;BME280;9945;46.010;8.946;2023-04-28T09:58:58;97522.09;;;19.67;49.15
19596;BME280;9945;46.010;8.946;2023-04-28T10:01:27;97525.13;;;19.57;50.07
19596;BME280;9945;46.010;8.946;2023-04-28T10:03:59;97527.78;;;19.57;49.79
19596;BME280;9945;46.010;8.946;2023-04-28T10:06:27;97524.91;;;19.52;49.70
19596;BME280;9945;46.010;8.946;2023-04-28T10:08:55;97520.88;;;19.70;50.37
19596;BME280;9945;46.010;8.946;2023-04-28T10:11:24;97510.06;;;19.71;48.51
19596;BME280;9945;46.010;8.946;2023-04-28T10:13:53;97506.41;;;19.72;48.73
19596;BME280;9945;46.010;8.946;2023-04-28T10:16:21;97504.75;;;19.71;49.40
19596;BME280;9945;46.010;8.946;2023-04-28T10:18:48;97499.44;;;19.71;48.73
19596;BME280;9945;46.010;8.946;2023-04-28T10:21:18;97507.63;;;19.76;47.52
19596;BME280;9945;46.010;8.946;2023-04-28T10:24:08;97498.91;;;19.89;46.62
19596;BME280;9945;46.010;8.946;2023-04-28T10:27:07;97501.19;;;19.98;46.71
19596;BME280;9945;46.010;8.946;2023-04-28T10:29:35;97499.75;;;20.02;46.49
19596;BME280;9945;46.010;8.946;2023-04-28T10:32:20;97493.41;;;20.10;45.73
19596;BME280;9945;46.010;8.946;2023-04-28T10:34:50;97490.38;;;20.13;46.63
19596;BME280;9945;46.010;8.946;2023-04-28T10:37:19;97489.44;;;20.41;46.74
19596;BME280;9945;46.010;8.946;2023-04-28T10:40:30;97495.69;;;20.26;46.78
19596;BME280;9945;46.010;8.946;2023-04-28T10:42:57;97490.03;;;20.43;46.96
19596;BME280;9945;46.010;8.946;2023-04-28T10:49:03;97473.06;;;20.63;45.60
19596;BME280;9945;46.010;8.946;2023-04-28T10:51:34;97467.28;;;21.06;44.64
19596;BME280;9945;46.010;8.946;2023-04-28T10:54:13;97472.00;;;21.24;44.14
19596;BME280;9945;46.010;8.946;2023-04-28T10:56:42;97462.25;;;21.56;43.96
19596;BME280;9945;46.010;8.946;2023-04-28T10:59:28;97452.25;;;21.89;43.51
19596;BME280;9945;46.010;8.946;2023-04-28T11:02:37;97454.13;;;21.31;43.56
19596;BME280;9945;46.010;8.946;2023-04-28T11:05:18;97454.38;;;21.23;44.50
19596;BME280;9945;46.010;8.946;2023-04-28T11:11:16;97442.72;;;20.97;44.65
19596;BME280;9945;46.010;8.946;2023-04-28T11:13:43;97436.34;;;21.25;42.98
19596;BME280;9945;46.010;8.946;2023-04-28T11:16:13;97425.69;;;21.18;44.03
19596;BME280;9945;46.010;8.946;2023-04-28T11:18:49;97420.50;;;21.36;44.01
19596;BME280;9945;46.010;8.946;2023-04-28T11:21:17;97427.75;;;21.67;41.94
19596;BME280;9945;46.010;8.946;2023-04-28T11:23:44;97427.34;;;22.08;41.97
19596;BME280;9945;46.010;8.946;2023-04-28T11:26:12;97432.72;;;22.33;41.38
19596;BME280;9945;46.010;8.946;2023-04-28T11:28:58;97428.06;;;22.47;40.05
19596;BME280;9945;46.010;8.946;2023-04-28T11:31:25;97423.69;;;22.34;40.58
19596;BME280;9945;46.010;8.946;2023-04-28T11:33:58;97422.38;;;22.43;39.85
19596;BME280;9945;46.010;8.946;2023-04-28T11:36:31;97425.88;;;22.44;39.34
19596;BME280;9945;46.010;8.946;2023-04-28T11:39:00;97417.50;;;22.58;39.76
19596;BME280;9945;46.010;8.946;2023-04-28T11:41:29;97420.66;;;22.74;39.73
19596;BME280;9945;46.010;8.946;2023-04-28T11:43:56;97422.72;;;22.72;40.02
19596;BME280;9945;46.010;8.946;2023-04-28T11:46:25;97415.34;;;22.49;40.69
19596;BME280;9945;46.010;8.946;2023-04-28T11:49:03;97411.09;;;22.41;40.15
19596;BME280;9945;46.010;8.946;2023-04-28T11:51:35;97410.66;;;22.44;39.60
19596;BME280;9945;46.010;8.946;2023-04-28T11:54:04;97404.50;;;22.44;41.12
19596;BME280;9945;46.010;8.946;2023-04-28T11:56:35;97403.22;;;22.21;40.80
19596;BME280;9945;46.010;8.946;2023-04-28T11:59:04;97402.00;;;22.24;41.08
19596;BME280;9945;46.010;8.946;2023-04-28T12:01:34;97400.06;;;22.81;41.68
19596;BME280;9945;46.010;8.946;2023-04-28T12:04:09;97400.59;;;22.89;40.34
19596;BME280;9945;46.010;8.946;2023-04-28T12:06:37;97391.47;;;22.97;39.93
19596;BME280;9945;46.010;8.946;2023-04-28T12:09:14;97385.78;;;22.93;39.92
19596;BME280;9945;46.010;8.946;2023-04-28T12:11:51;97381.78;;;23.02;39.47
19596;BME280;9945;46.010;8.946;2023-04-28T12:14:19;97377.78;;;23.30;39.31
19596;BME280;9945;46.010;8.946;2023-04-28T12:16:47;97384.78;;;23.43;38.54
19596;BME280;9945;46.010;8.946;2023-04-28T12:19:15;97374.84;;;23.31;37.78
19596;BME280;9945;46.010;8.946;2023-04-28T12:21:57;97378.63;;;23.42;38.32
19596;BME280;9945;46.010;8.946;2023-04-28T12:24:25;97368.03;;;23.17;38.67
19596;BME280;9945;46.010;8.946;2023-04-28T12:26:52;97362.47;;;23.00;38.18
19596;BME280;9945;46.010;8.946;2023-04-28T12:29:38;97359.69;;;23.14;38.20
19596;BME280;9945;46.010;8.946;2023-04-28T12:32:08;97370.38;;;23.14;39.84
19596;BME280;9945;46.010;8.946;2023-04-28T12:34:36;97370.19;;;23.09;39.79
19596;BME280;9945;46.010;8.946;2023-04-28T12:37:05;97374.81;;;23.01;41.02
19596;BME280;9945;46.010;8.946;2023-04-28T12:39:32;97360.19;;;23.04;40.16
19596;BME280;9945;46.010;8.946;2023-04-28T12:41:59;97358.91;;;23.07;40.13
19596;BME280;9945;46.010;8.946;2023-04-28T12:44:30;97359.22;;;23.17;40.79
19596;BME280;9945;46.010;8.946;2023-04-28T12:47:00;97355.66;;;23.05;40.75
19596;BME280;9945;46.010;8.946;2023-04-28T12:49:29;97356.53;;;22.98;39.75
19596;BME280;9945;46.010;8.946;2023-04-28T12:51:56;97353.88;;;22.98;39.59
19596;BME280;9945;46.010;8.946;2023-04-28T12:54:22;97345.50;;;23.13;39.67
19596;BME280;9945;46.010;8.946;2023-04-28T12:56:49;97347.91;;;23.15;39.12
19596;BME280;9945;46.010;8.946;2023-04-28T12:59:17;97345.63;;;23.00;39.22
19596;BME280;9945;46.010;8.946;2023-04-28T13:01:43;97349.00;;;22.95;38.65
19596;BME280;9945;46.010;8.946;2023-04-28T13:04:10;97344.31;;;22.91;38.82
19596;BME280;9945;46.010;8.946;2023-04-28T13:06:39;97344.69;;;22.94;38.16
19596;BME280;9945;46.010;8.946;2023-04-28T13:09:09;97338.91;;;22.79;38.50
19596;BME280;9945;46.010;8.946;2023-04-28T13:11:36;97341.34;;;22.99;39.61
19596;BME280;9945;46.010;8.946;2023-04-28T13:14:03;97337.78;;;23.05;39.21
19596;BME280;9945;46.010;8.946;2023-04-28T13:16:30;97336.28;;;22.91;38.51
19596;BME280;9945;46.010;8.946;2023-04-28T13:18:56;97331.38;;;23.06;38.15
19596;BME280;9945;46.010;8.946;2023-04-28T13:21:24;97326.53;;;23.33;38.25
19596;BME280;9945;46.010;8.946;2023-04-28T13:23:53;97319.31;;;23.33;37.70